sensor_id;sensor_type;location;lat;lon;timestamp;P1;durP1;ratioP1;P2;durP2;ratioP2
5428;SDS011;2737;52.386;9.980;2022-08-21T00:01:26;3.17;;;1.53;;
5428;SDS011;2737;52.386;9.980;2022-08-21T00:03:55;6.63;;;2.30;;
5428;SDS011;2737;52.386;9.980;2022-08-21T00:06:24;3.90;;;1.87;;
5428;SDS011;2737;52.386;9.980;2022-08-21T00:08:51;7.80;;;1.97;;
5428;SDS011;2737;52.386;9.980;2022-08-21T00:11:18;6.17;;;1.87;;
5428;SDS011;2737;52.386;9.980;2022-08-21T00:13:45;4.33;;;1.80;;
5428;SDS011;2737;52.386;9.980;2022-08-21T00:16:13;3.80;;;1.80;;
5428;SDS011;2737;52.386;9.980;2022-08-21T00:18:40;2.57;;;1.43;;
5428;SDS011;2737;52.386;9.980;2022-08-21T00:21:07;2.90;;;1.50;;
5428;SDS011;2737;52.386;9.980;2022-08-21T00:23:36;4.70;;;2.10;;
5428;SDS011;2737;52.386;9.980;2022-08-21T00:26:03;7.20;;;1.90;;
5428;SDS011;2737;52.386;9.980;2022-08-21T00:28:30;4.60;;;1.80;;
5428;SDS011;2737;52.386;9.980;2022-08-21T00:30:58;6.07;;;1.73;;
5428;SDS011;2737;52.386;9.980;2022-08-21T00:33:26;6.37;;;1.80;;
5428;SDS011;2737;52.386;9.980;2022-08-21T00:35:53;3.03;;;1.37;;
5428;SDS011;2737;52.386;9.980;2022-08-21T00:38:23;4.50;;;1.63;;
5428;SDS011;2737;52.386;9.980;2022-08-21T00:40:52;5.63;;;1.97;;
5428;SDS011;2737;52.386;9.980;2022-08-21T00:43:23;4.53;;;1.50;;
5428;SDS011;2737;52.386;9.980;2022-08-21T00:45:53;3.87;;;2.00;;
5428;SDS011;2737;52.386;9.980;2022-08-21T00:48:21;7.20;;;2.03;;
5428;SDS011;2737;52.386;9.980;2022-08-21T00:50:50;3.73;;;1.90;;
5428;SDS011;2737;52.386;9.980;2022-08-21T00:53:21;4.30;;;1.90;;
5428;SDS011;2737;52.386;9.980;2022-08-21T00:55:51;5.90;;;1.80;;
5428;SDS011;2737;52.386;9.980;2022-08-21T00:58:19;4.57;;;1.60;;
5428;SDS011;2737;52.386;9.980;2022-08-21T01:00:47;4.27;;;1.83;;
5428;SDS011;2737;52.386;9.980;2022-08-21T01:03:16;3.73;;;2.07;;
5428;SDS011;2737;52.386;9.980;2022-08-21T01:05:44;3.80;;;1.70;;
5428;SDS011;2737;52.386;9.980;2022-08-21T01:08:12;10.67;;;2.60;;
5428;SDS011;2737;52.386;9.980;2022-08-21T01:10:42;4.83;;;2.00;;
5428;SDS011;2737;52.386;9.980;2022-08-21T01:13:11;9.93;;;2.30;;
5428;SDS011;2737;52.386;9.980;2022-08-21T01:15:42;11.83;;;2.23;;
5428;SDS011;2737;52.386;9.980;2022-08-21T01:18:13;4.60;;;2.07;;
5428;SDS011;2737;52.386;9.980;2022-08-21T01:20:42;4.27;;;1.80;;
5428;SDS011;2737;52.386;9.980;2022-08-21T01:23:12;8.90;;;2.33;;
5428;SDS011;2737;52.386;9.980;2022-08-21T01:25:39;5.20;;;2.03;;
5428;SDS011;2737;52.386;9.980;2022-08-21T01:28:10;3.73;;;1.67;;
5428;SDS011;2737;52.386;9.980;2022-08-21T01:30:39;3.17;;;2.13;;
5428;SDS011;2737;52.386;9.980;2022-08-21T01:33:08;4.47;;;1.90;;
5428;SDS011;2737;52.386;9.980;2022-08-21T01:35:36;6.00;;;2.07;;
5428;SDS011;2737;52.386;9.980;2022-08-21T01:38:03;2.13;;;1.53;;
5428;SDS011;2737;52.386;9.980;2022-08-21T01:40:32;6.10;;;2.10;;
5428;SDS011;2737;52.386;9.980;2022-08-21T01:42:59;3.07;;;1.60;;
5428;SDS011;2737;52.386;9.980;2022-08-21T01:45:26;5.20;;;2.10;;
5428;SDS011;2737;52.386;9.980;2022-08-21T01:47:53;2.57;;;1.57;;
5428;SDS011;2737;52.386;9.980;2022-08-21T01:50:20;4.13;;;1.70;;
5428;SDS011;2737;52.386;9.980;2022-08-21T01:52:48;11.30;;;1.90;;
5428;SDS011;2737;52.386;9.980;2022-08-21T01:55:16;4.97;;;1.90;;
5428;SDS011;2737;52.386;9.980;2022-08-21T01:57:45;4.83;;;2.00;;
5428;SDS011;2737;52.386;9.980;2022-08-21T02:00:16;4.37;;;1.83;;
5428;SDS011;2737;52.386;9.980;2022-08-21T02:02:45;4.80;;;1.60;;
5428;SDS011;2737;52.386;9.980;2022-08-21T02:05:12;3.87;;;1.60;;
5428;SDS011;2737;52.386;9.980;2022-08-21T02:07:39;5.13;;;1.70;;
5428;SDS011;2737;52.386;9.980;2022-08-21T02:10:11;4.93;;;2.00;;
5428;SDS011;2737;52.386;9.980;2022-08-21T02:12:39;3.50;;;1.87;;
5428;SDS011;2737;52.386;9.980;2022-08-21T02:15:08;7.27;;;2.33;;
5428;SDS011;2737;52.386;9.980;2022-08-21T02:17:39;4.87;;;1.77;;
5428;SDS011;2737;52.386;9.980;2022-08-21T02:20:10;8.90;;;2.00;;
5428;SDS011;2737;52.386;9.980;2022-08-21T02:22:41;5.43;;;1.93;;
5428;SDS011;2737;52.386;9.980;2022-08-21T02:25:08;2.10;;;1.40;;
5428;SDS011;2737;52.386;9.980;2022-08-21T02:27:37;4.50;;;1.67;;
5428;SDS011;2737;52.386;9.980;2022-08-21T02:30:08;4.57;;;1.50;;
5428;SDS011;2737;52.386;9.980;2022-08-21T02:32:38;3.47;;;2.10;;
5428;SDS011;2737;52.386;9.980;2022-08-21T02:35:06;3.90;;;1.73;;
5428;SDS011;2737;52.386;9.980;2022-08-21T02:37:34;5.77;;;1.57;;
5428;SDS011;2737;52.386;9.980;2022-08-21T02:40:08;5.17;;;1.80;;
5428;SDS011;2737;52.386;9.980;2022-08-21T02:42:36;4.23;;;1.93;;
5428;SDS011;2737;52.386;9.980;2022-08-21T02:45:04;4.90;;;1.70;;
5428;SDS011;2737;52.386;9.980;2022-08-21T02:47:33;3.27;;;2.20;;
5428;SDS011;2737;52.386;9.980;2022-08-21T02:50:00;3.20;;;1.67;;
5428;SDS011;2737;52.386;9.980;2022-08-21T02:52:27;4.33;;;1.60;;
5428;SDS011;2737;52.386;9.980;2022-08-21T02:54:54;3.57;;;1.60;;
5428;SDS011;2737;52.386;9.980;2022-08-21T02:57:21;4.57;;;1.60;;
5428;SDS011;2737;52.386;9.980;2022-08-21T02:59:48;4.17;;;2.13;;
5428;SDS011;2737;52.386;9.980;2022-08-21T03:02:15;4.00;;;1.97;;
5428;SDS011;2737;52.386;9.980;2022-08-21T03:04:43;3.03;;;1.70;;
5428;SDS011;2737;52.386;9.980;2022-08-21T03:07:10;4.50;;;2.10;;
5428;SDS011;2737;52.386;9.980;2022-08-21T03:09:38;3.00;;;1.60;;
5428;SDS011;2737;52.386;9.980;2022-08-21T03:12:05;4.07;;;1.77;;
5428;SDS011;2737;52.386;9.980;2022-08-21T03:14:32;2.47;;;1.77;;
5428;SDS011;2737;52.386;9.980;2022-08-21T03:16:59;3.30;;;1.57;;
5428;SDS011;2737;52.386;9.980;2022-08-21T03:19:26;4.10;;;1.70;;
5428;SDS011;2737;52.386;9.980;2022-08-21T03:21:55;5.87;;;1.80;;
5428;SDS011;2737;52.386;9.980;2022-08-21T03:24:22;5.07;;;1.93;;
5428;SDS011;2737;52.386;9.980;2022-08-21T03:26:49;5.20;;;1.90;;
5428;SDS011;2737;52.386;9.980;2022-08-21T03:29:16;6.93;;;2.47;;
5428;SDS011;2737;52.386;9.980;2022-08-21T03:31:43;4.27;;;1.90;;
5428;SDS011;2737;52.386;9.980;2022-08-21T03:34:10;5.13;;;2.10;;
5428;SDS011;2737;52.386;9.980;2022-08-21T03:36:37;2.70;;;1.90;;
5428;SDS011;2737;52.386;9.980;2022-08-21T03:39:05;3.87;;;2.00;;
5428;SDS011;2737;52.386;9.980;2022-08-21T03:41:33;4.50;;;1.90;;
5428;SDS011;2737;52.386;9.980;2022-08-21T03:44:00;5.30;;;2.00;;
5428;SDS011;2737;52.386;9.980;2022-08-21T03:46:27;6.63;;;1.90;;
5428;SDS011;2737;52.386;9.980;2022-08-21T03:48:54;3.73;;;1.90;;
5428;SDS011;2737;52.386;9.980;2022-08-21T03:51:21;5.47;;;2.20;;
5428;SDS011;2737;52.386;9.980;2022-08-21T03:53:48;3.00;;;1.77;;
5428;SDS011;2737;52.386;9.980;2022-08-21T03:56:16;2.90;;;2.07;;
5428;SDS011;2737;52.386;9.980;2022-08-21T03:58:44;4.37;;;1.70;;
5428;SDS011;2737;52.386;9.980;2022-08-21T04:01:11;6.40;;;2.13;;
5428;SDS011;2737;52.386;9.980;2022-08-21T04:03:39;6.47;;;1.90;;
5428;SDS011;2737;52.386;9.980;2022-08-21T04:06:06;4.80;;;1.93;;
5428;SDS011;2737;52.386;9.980;2022-08-21T04:08:34;2.50;;;1.83;;
5428;SDS011;2737;52.386;9.980;2022-08-21T04:11:01;6.00;;;2.73;;
5428;SDS011;2737;52.386;9.980;2022-08-21T04:13:30;7.53;;;2.87;;
5428;SDS011;2737;52.386;9.980;2022-08-21T04:15:57;7.83;;;2.20;;
5428;SDS011;2737;52.386;9.980;2022-08-21T04:18:24;4.63;;;1.90;;
5428;SDS011;2737;52.386;9.980;2022-08-21T04:20:51;3.90;;;2.30;;
5428;SDS011;2737;52.386;9.980;2022-08-21T04:23:20;5.03;;;2.20;;
5428;SDS011;2737;52.386;9.980;2022-08-21T04:25:49;2.93;;;2.00;;
5428;SDS011;2737;52.386;9.980;2022-08-21T04:28:17;6.87;;;2.43;;
5428;SDS011;2737;52.386;9.980;2022-08-21T04:30:45;4.30;;;2.13;;
5428;SDS011;2737;52.386;9.980;2022-08-21T04:33:13;4.83;;;2.57;;
5428;SDS011;2737;52.386;9.980;2022-08-21T04:35:40;4.67;;;2.27;;
5428;SDS011;2737;52.386;9.980;2022-08-21T04:38:07;9.00;;;2.60;;
5428;SDS011;2737;52.386;9.980;2022-08-21T04:40:34;4.13;;;2.27;;
5428;SDS011;2737;52.386;9.980;2022-08-21T04:43:02;7.13;;;3.07;;
5428;SDS011;2737;52.386;9.980;2022-08-21T04:45:31;3.73;;;2.27;;
5428;SDS011;2737;52.386;9.980;2022-08-21T04:48:02;7.73;;;2.70;;
5428;SDS011;2737;52.386;9.980;2022-08-21T04:50:33;7.37;;;2.83;;
5428;SDS011;2737;52.386;9.980;2022-08-21T04:53:04;4.30;;;2.87;;
5428;SDS011;2737;52.386;9.980;2022-08-21T04:55:33;8.00;;;2.97;;
5428;SDS011;2737;52.386;9.980;2022-08-21T04:58:02;8.40;;;3.20;;
5428;SDS011;2737;52.386;9.980;2022-08-21T05:00:31;5.13;;;2.83;;
5428;SDS011;2737;52.386;9.980;2022-08-21T05:02:58;7.30;;;2.73;;
5428;SDS011;2737;52.386;9.980;2022-08-21T05:05:28;8.73;;;3.00;;
5428;SDS011;2737;52.386;9.980;2022-08-21T05:07:56;10.50;;;2.63;;
5428;SDS011;2737;52.386;9.980;2022-08-21T05:10:26;6.73;;;2.40;;
5428;SDS011;2737;52.386;9.980;2022-08-21T05:12:54;4.77;;;2.37;;
5428;SDS011;2737;52.386;9.980;2022-08-21T05:15:21;4.23;;;2.73;;
5428;SDS011;2737;52.386;9.980;2022-08-21T05:17:48;5.33;;;3.00;;
5428;SDS011;2737;52.386;9.980;2022-08-21T05:20:18;6.90;;;2.83;;
5428;SDS011;2737;52.386;9.980;2022-08-21T05:22:45;25.93;;;3.77;;
5428;SDS011;2737;52.386;9.980;2022-08-21T05:25:12;7.60;;;2.90;;
5428;SDS011;2737;52.386;9.980;2022-08-21T05:27:39;6.83;;;2.60;;
5428;SDS011;2737;52.386;9.980;2022-08-21T05:30:07;11.77;;;3.10;;
5428;SDS011;2737;52.386;9.980;2022-08-21T05:32:35;8.80;;;2.97;;
5428;SDS011;2737;52.386;9.980;2022-08-21T05:35:03;6.53;;;2.57;;
5428;SDS011;2737;52.386;9.980;2022-08-21T05:37:32;6.10;;;2.83;;
5428;SDS011;2737;52.386;9.980;2022-08-21T05:40:00;6.50;;;2.83;;
5428;SDS011;2737;52.386;9.980;2022-08-21T05:42:27;5.47;;;2.73;;
5428;SDS011;2737;52.386;9.980;2022-08-21T05:44:54;6.30;;;2.70;;
5428;SDS011;2737;52.386;9.980;2022-08-21T05:47:21;5.40;;;2.50;;
5428;SDS011;2737;52.386;9.980;2022-08-21T05:49:48;4.03;;;2.20;;
5428;SDS011;2737;52.386;9.980;2022-08-21T05:52:18;13.07;;;2.73;;
5428;SDS011;2737;52.386;9.980;2022-08-21T05:54:47;5.17;;;2.60;;
5428;SDS011;2737;52.386;9.980;2022-08-21T05:57:14;7.17;;;2.60;;
5428;SDS011;2737;52.386;9.980;2022-08-21T05:59:42;5.17;;;2.30;;
5428;SDS011;2737;52.386;9.980;2022-08-21T06:02:09;7.33;;;3.33;;
5428;SDS011;2737;52.386;9.980;2022-08-21T06:04:36;5.57;;;2.50;;
5428;SDS011;2737;52.386;9.980;2022-08-21T06:07:04;6.40;;;2.50;;
5428;SDS011;2737;52.386;9.980;2022-08-21T06:09:33;7.37;;;2.50;;
5428;SDS011;2737;52.386;9.980;2022-08-21T06:12:04;6.30;;;2.33;;
5428;SDS011;2737;52.386;9.980;2022-08-21T06:14:33;9.70;;;2.77;;
5428;SDS011;2737;52.386;9.980;2022-08-21T06:17:01;7.83;;;2.50;;
5428;SDS011;2737;52.386;9.980;2022-08-21T06:19:29;8.23;;;1.70;;
5428;SDS011;2737;52.386;9.980;2022-08-21T06:21:56;7.90;;;2.10;;
5428;SDS011;2737;52.386;9.980;2022-08-21T06:24:24;4.80;;;2.20;;
5428;SDS011;2737;52.386;9.980;2022-08-21T06:26:52;5.83;;;2.37;;
5428;SDS011;2737;52.386;9.980;2022-08-21T06:29:21;2.90;;;1.73;;
5428;SDS011;2737;52.386;9.980;2022-08-21T06:31:49;11.00;;;2.30;;
5428;SDS011;2737;52.386;9.980;2022-08-21T06:34:17;4.20;;;2.33;;
5428;SDS011;2737;52.386;9.980;2022-08-21T06:36:45;15.63;;;2.63;;
5428;SDS011;2737;52.386;9.980;2022-08-21T06:39:12;4.00;;;2.10;;
5428;SDS011;2737;52.386;9.980;2022-08-21T06:41:39;8.13;;;2.00;;
5428;SDS011;2737;52.386;9.980;2022-08-21T06:44:06;4.93;;;2.00;;
5428;SDS011;2737;52.386;9.980;2022-08-21T06:46:35;5.40;;;2.50;;
5428;SDS011;2737;52.386;9.980;2022-08-21T06:49:02;4.70;;;1.90;;
5428;SDS011;2737;52.386;9.980;2022-08-21T06:51:30;5.70;;;2.03;;
5428;SDS011;2737;52.386;9.980;2022-08-21T06:53:57;4.43;;;2.17;;
5428;SDS011;2737;52.386;9.980;2022-08-21T06:56:24;4.47;;;2.50;;
5428;SDS011;2737;52.386;9.980;2022-08-21T06:58:51;4.00;;;2.20;;
5428;SDS011;2737;52.386;9.980;2022-08-21T07:01:18;4.63;;;1.90;;
5428;SDS011;2737;52.386;9.980;2022-08-21T07:03:47;4.63;;;1.90;;
5428;SDS011;2737;52.386;9.980;2022-08-21T07:06:15;6.13;;;2.20;;
5428;SDS011;2737;52.386;9.980;2022-08-21T07:08:42;7.60;;;1.70;;
5428;SDS011;2737;52.386;9.980;2022-08-21T07:11:11;3.77;;;1.77;;
5428;SDS011;2737;52.386;9.980;2022-08-21T07:13:40;11.17;;;2.50;;
5428;SDS011;2737;52.386;9.980;2022-08-21T07:16:07;5.77;;;2.10;;
5428;SDS011;2737;52.386;9.980;2022-08-21T07:18:34;3.37;;;2.03;;
5428;SDS011;2737;52.386;9.980;2022-08-21T07:21:03;5.70;;;2.20;;
5428;SDS011;2737;52.386;9.980;2022-08-21T07:23:31;4.53;;;2.13;;
5428;SDS011;2737;52.386;9.980;2022-08-21T07:26:00;6.60;;;2.20;;
5428;SDS011;2737;52.386;9.980;2022-08-21T07:28:28;3.90;;;1.90;;
5428;SDS011;2737;52.386;9.980;2022-08-21T07:30:56;4.60;;;2.27;;
5428;SDS011;2737;52.386;9.980;2022-08-21T07:33:25;6.73;;;2.90;;
5428;SDS011;2737;52.386;9.980;2022-08-21T07:35:53;4.47;;;2.17;;
5428;SDS011;2737;52.386;9.980;2022-08-21T07:38:22;5.97;;;2.50;;
5428;SDS011;2737;52.386;9.980;2022-08-21T07:40:49;5.90;;;2.53;;
5428;SDS011;2737;52.386;9.980;2022-08-21T07:43:18;7.33;;;2.73;;
5428;SDS011;2737;52.386;9.980;2022-08-21T07:45:46;8.60;;;2.00;;
5428;SDS011;2737;52.386;9.980;2022-08-21T07:48:14;9.50;;;2.87;;
5428;SDS011;2737;52.386;9.980;2022-08-21T07:50:44;5.10;;;1.80;;
5428;SDS011;2737;52.386;9.980;2022-08-21T07:53:11;6.63;;;2.20;;
5428;SDS011;2737;52.386;9.980;2022-08-21T07:55:39;11.43;;;2.90;;
5428;SDS011;2737;52.386;9.980;2022-08-21T07:58:06;11.70;;;2.00;;
5428;SDS011;2737;52.386;9.980;2022-08-21T08:00:34;6.83;;;2.20;;
5428;SDS011;2737;52.386;9.980;2022-08-21T08:03:01;3.57;;;2.00;;
5428;SDS011;2737;52.386;9.980;2022-08-21T08:05:29;5.20;;;2.40;;
5428;SDS011;2737;52.386;9.980;2022-08-21T08:07:57;8.77;;;2.70;;
5428;SDS011;2737;52.386;9.980;2022-08-21T08:10:25;4.90;;;1.80;;
5428;SDS011;2737;52.386;9.980;2022-08-21T08:12:54;5.63;;;2.07;;
5428;SDS011;2737;52.386;9.980;2022-08-21T08:15:22;3.10;;;1.70;;
5428;SDS011;2737;52.386;9.980;2022-08-21T08:17:52;4.60;;;1.90;;
5428;SDS011;2737;52.386;9.980;2022-08-21T08:20:19;4.83;;;2.30;;
5428;SDS011;2737;52.386;9.980;2022-08-21T08:22:48;3.80;;;1.93;;
5428;SDS011;2737;52.386;9.980;2022-08-21T08:25:15;3.30;;;1.60;;
5428;SDS011;2737;52.386;9.980;2022-08-21T08:27:44;4.47;;;1.60;;
5428;SDS011;2737;52.386;9.980;2022-08-21T08:30:13;4.87;;;1.90;;
5428;SDS011;2737;52.386;9.980;2022-08-21T08:32:42;5.17;;;1.97;;
5428;SDS011;2737;52.386;9.980;2022-08-21T08:35:10;3.83;;;1.80;;
5428;SDS011;2737;52.386;9.980;2022-08-21T08:37:38;6.20;;;1.93;;
5428;SDS011;2737;52.386;9.980;2022-08-21T08:40:07;10.30;;;2.13;;
5428;SDS011;2737;52.386;9.980;2022-08-21T08:42:38;2.80;;;1.53;;
5428;SDS011;2737;52.386;9.980;2022-08-21T08:45:06;7.43;;;1.77;;
5428;SDS011;2737;52.386;9.980;2022-08-21T08:47:39;5.15;;;2.03;;
5428;SDS011;2737;52.386;9.980;2022-08-21T08:50:11;2.85;;;1.75;;
5428;SDS011;2737;52.386;9.980;2022-08-21T08:52:43;6.57;;;2.00;;
5428;SDS011;2737;52.386;9.980;2022-08-21T08:55:15;5.75;;;2.13;;
5428;SDS011;2737;52.386;9.980;2022-08-21T08:57:47;3.45;;;1.38;;
5428;SDS011;2737;52.386;9.980;2022-08-21T09:00:17;8.73;;;2.55;;
5428;SDS011;2737;52.386;9.980;2022-08-21T09:02:47;6.35;;;2.67;;
5428;SDS011;2737;52.386;9.980;2022-08-21T09:05:19;5.05;;;1.90;;
5428;SDS011;2737;52.386;9.980;2022-08-21T09:07:52;8.65;;;2.70;;
5428;SDS011;2737;52.386;9.980;2022-08-21T09:10:36;10.10;;;2.00;;
5428;SDS011;2737;52.386;9.980;2022-08-21T09:13:15;7.25;;;1.85;;
5428;SDS011;2737;52.386;9.980;2022-08-21T09:15:50;3.33;;;1.50;;
5428;SDS011;2737;52.386;9.980;2022-08-21T09:18:29;8.10;;;2.00;;
5428;SDS011;2737;52.386;9.980;2022-08-21T09:21:07;4.35;;;1.67;;
5428;SDS011;2737;52.386;9.980;2022-08-21T09:23:43;4.53;;;1.83;;
5428;SDS011;2737;52.386;9.980;2022-08-21T09:26:19;5.38;;;1.58;;
5428;SDS011;2737;52.386;9.980;2022-08-21T09:28:51;5.88;;;1.90;;
5428;SDS011;2737;52.386;9.980;2022-08-21T09:31:25;3.78;;;2.17;;
5428;SDS011;2737;52.386;9.980;2022-08-21T09:33:58;4.95;;;2.03;;
5428;SDS011;2737;52.386;9.980;2022-08-21T09:36:28;7.38;;;1.67;;
5428;SDS011;2737;52.386;9.980;2022-08-21T09:39:03;8.20;;;2.00;;
5428;SDS011;2737;52.386;9.980;2022-08-21T09:41:32;11.23;;;1.92;;
5428;SDS011;2737;52.386;9.980;2022-08-21T09:44:01;3.15;;;1.30;;
5428;SDS011;2737;52.386;9.980;2022-08-21T09:46:29;6.30;;;1.88;;
5428;SDS011;2737;52.386;9.980;2022-08-21T09:49:01;7.28;;;2.22;;
5428;SDS011;2737;52.386;9.980;2022-08-21T09:51:31;3.92;;;1.65;;
5428;SDS011;2737;52.386;9.980;2022-08-21T09:54:10;4.90;;;1.70;;
5428;SDS011;2737;52.386;9.980;2022-08-21T09:56:51;6.00;;;1.65;;
5428;SDS011;2737;52.386;9.980;2022-08-21T09:59:39;11.10;;;3.30;;
5428;SDS011;2737;52.386;9.980;2022-08-21T10:02:19;5.35;;;1.70;;
5428;SDS011;2737;52.386;9.980;2022-08-21T10:04:53;5.20;;;2.10;;
5428;SDS011;2737;52.386;9.980;2022-08-21T10:07:22;10.00;;;1.90;;
5428;SDS011;2737;52.386;9.980;2022-08-21T10:09:58;4.57;;;1.50;;
5428;SDS011;2737;52.386;9.980;2022-08-21T10:12:35;5.45;;;1.80;;
5428;SDS011;2737;52.386;9.980;2022-08-21T10:15:12;6.88;;;1.77;;
5428;SDS011;2737;52.386;9.980;2022-08-21T10:17:49;14.25;;;2.45;;
5428;SDS011;2737;52.386;9.980;2022-08-21T10:20:25;4.82;;;1.95;;
5428;SDS011;2737;52.386;9.980;2022-08-21T10:23:02;4.55;;;1.88;;
5428;SDS011;2737;52.386;9.980;2022-08-21T10:25:37;11.95;;;2.15;;
5428;SDS011;2737;52.386;9.980;2022-08-21T10:28:10;7.20;;;2.10;;
5428;SDS011;2737;52.386;9.980;2022-08-21T10:30:46;6.28;;;2.03;;
5428;SDS011;2737;52.386;9.980;2022-08-21T10:33:20;3.72;;;1.58;;
5428;SDS011;2737;52.386;9.980;2022-08-21T10:35:58;7.25;;;1.70;;
5428;SDS011;2737;52.386;9.980;2022-08-21T10:38:38;4.97;;;2.00;;
5428;SDS011;2737;52.386;9.980;2022-08-21T10:41:18;9.27;;;1.77;;
5428;SDS011;2737;52.386;9.980;2022-08-21T10:43:56;7.65;;;1.65;;
5428;SDS011;2737;52.386;9.980;2022-08-21T10:46:36;3.25;;;1.65;;
5428;SDS011;2737;52.386;9.980;2022-08-21T10:49:16;5.07;;;1.60;;
5428;SDS011;2737;52.386;9.980;2022-08-21T10:51:56;7.93;;;2.00;;
5428;SDS011;2737;52.386;9.980;2022-08-21T10:54:37;5.65;;;1.70;;
5428;SDS011;2737;52.386;9.980;2022-08-21T10:57:16;3.38;;;1.67;;
5428;SDS011;2737;52.386;9.980;2022-08-21T10:59:49;3.63;;;1.45;;
5428;SDS011;2737;52.386;9.980;2022-08-21T11:02:26;3.53;;;1.70;;
5428;SDS011;2737;52.386;9.980;2022-08-21T11:04:59;10.27;;;1.88;;
5428;SDS011;2737;52.386;9.980;2022-08-21T11:07:32;6.93;;;1.98;;
5428;SDS011;2737;52.386;9.980;2022-08-21T11:10:03;4.05;;;1.75;;
5428;SDS011;2737;52.386;9.980;2022-08-21T11:12:38;7.53;;;1.83;;
5428;SDS011;2737;52.386;9.980;2022-08-21T11:15:14;5.78;;;1.70;;
5428;SDS011;2737;52.386;9.980;2022-08-21T11:18:01;4.90;;;1.88;;
5428;SDS011;2737;52.386;9.980;2022-08-21T11:20:42;6.30;;;2.47;;
5428;SDS011;2737;52.386;9.980;2022-08-21T11:23:18;8.20;;;1.80;;
5428;SDS011;2737;52.386;9.980;2022-08-21T11:25:49;6.85;;;1.73;;
5428;SDS011;2737;52.386;9.980;2022-08-21T11:28:21;4.80;;;1.70;;
5428;SDS011;2737;52.386;9.980;2022-08-21T11:30:56;6.32;;;1.73;;
5428;SDS011;2737;52.386;9.980;2022-08-21T11:33:39;6.72;;;1.90;;
5428;SDS011;2737;52.386;9.980;2022-08-21T11:36:19;3.83;;;1.58;;
5428;SDS011;2737;52.386;9.980;2022-08-21T11:38:57;2.25;;;1.40;;
5428;SDS011;2737;52.386;9.980;2022-08-21T11:41:31;4.15;;;1.55;;
5428;SDS011;2737;52.386;9.980;2022-08-21T11:44:06;2.50;;;1.23;;
5428;SDS011;2737;52.386;9.980;2022-08-21T11:46:40;7.10;;;2.00;;
5428;SDS011;2737;52.386;9.980;2022-08-21T11:49:23;6.25;;;1.95;;
5428;SDS011;2737;52.386;9.980;2022-08-21T11:52:11;4.50;;;1.88;;
5428;SDS011;2737;52.386;9.980;2022-08-21T11:54:46;3.30;;;1.20;;
5428;SDS011;2737;52.386;9.980;2022-08-21T11:57:20;4.05;;;1.40;;
5428;SDS011;2737;52.386;9.980;2022-08-21T11:59:53;2.80;;;1.20;;
5428;SDS011;2737;52.386;9.980;2022-08-21T12:02:28;3.15;;;1.35;;
5428;SDS011;2737;52.386;9.980;2022-08-21T12:04:59;1.83;;;1.40;;
5428;SDS011;2737;52.386;9.980;2022-08-21T12:07:30;3.13;;;1.40;;
5428;SDS011;2737;52.386;9.980;2022-08-21T12:10:02;4.03;;;1.25;;
5428;SDS011;2737;52.386;9.980;2022-08-21T12:12:34;7.78;;;1.45;;
5428;SDS011;2737;52.386;9.980;2022-08-21T12:15:13;5.85;;;1.58;;
5428;SDS011;2737;52.386;9.980;2022-08-21T12:20:38;5.65;;;1.88;;
5428;SDS011;2737;52.386;9.980;2022-08-21T12:23:18;3.47;;;1.33;;
5428;SDS011;2737;52.386;9.980;2022-08-21T12:26:17;5.57;;;1.23;;
5428;SDS011;2737;52.386;9.980;2022-08-21T12:28:51;5.38;;;1.80;;
5428;SDS011;2737;52.386;9.980;2022-08-21T12:31:29;7.43;;;1.45;;
5428;SDS011;2737;52.386;9.980;2022-08-21T12:33:58;5.55;;;1.55;;
5428;SDS011;2737;52.386;9.980;2022-08-21T12:36:30;5.05;;;1.60;;
5428;SDS011;2737;52.386;9.980;2022-08-21T12:39:11;2.95;;;1.42;;
5428;SDS011;2737;52.386;9.980;2022-08-21T12:41:45;3.00;;;1.40;;
5428;SDS011;2737;52.386;9.980;2022-08-21T12:44:16;4.40;;;1.70;;
5428;SDS011;2737;52.386;9.980;2022-08-21T12:46:48;5.40;;;1.60;;
5428;SDS011;2737;52.386;9.980;2022-08-21T12:49:19;4.68;;;1.70;;
5428;SDS011;2737;52.386;9.980;2022-08-21T12:51:53;2.58;;;1.55;;
5428;SDS011;2737;52.386;9.980;2022-08-21T12:54:24;3.65;;;1.60;;
5428;SDS011;2737;52.386;9.980;2022-08-21T12:56:58;3.13;;;1.30;;
5428;SDS011;2737;52.386;9.980;2022-08-21T12:59:27;2.83;;;1.50;;
5428;SDS011;2737;52.386;9.980;2022-08-21T13:01:59;3.25;;;1.55;;
5428;SDS011;2737;52.386;9.980;2022-08-21T13:04:33;5.72;;;2.45;;
5428;SDS011;2737;52.386;9.980;2022-08-21T13:07:05;4.55;;;1.80;;
5428;SDS011;2737;52.386;9.980;2022-08-21T13:09:36;5.50;;;1.65;;
5428;SDS011;2737;52.386;9.980;2022-08-21T13:12:10;4.93;;;1.60;;
5428;SDS011;2737;52.386;9.980;2022-08-21T13:14:39;4.43;;;1.23;;
5428;SDS011;2737;52.386;9.980;2022-08-21T13:17:09;6.72;;;1.67;;
5428;SDS011;2737;52.386;9.980;2022-08-21T13:19:37;9.95;;;1.60;;
5428;SDS011;2737;52.386;9.980;2022-08-21T13:22:05;3.88;;;1.52;;
5428;SDS011;2737;52.386;9.980;2022-08-21T13:24:39;5.13;;;1.40;;
5428;SDS011;2737;52.386;9.980;2022-08-21T13:27:17;6.10;;;1.80;;
5428;SDS011;2737;52.386;9.980;2022-08-21T13:29:45;7.15;;;1.40;;
5428;SDS011;2737;52.386;9.980;2022-08-21T13:32:18;3.60;;;1.50;;
5428;SDS011;2737;52.386;9.980;2022-08-21T13:34:51;4.97;;;1.58;;
5428;SDS011;2737;52.386;9.980;2022-08-21T13:37:19;1.95;;;1.23;;
5428;SDS011;2737;52.386;9.980;2022-08-21T13:39:49;2.78;;;1.30;;
5428;SDS011;2737;52.386;9.980;2022-08-21T13:42:18;3.80;;;1.55;;
5428;SDS011;2737;52.386;9.980;2022-08-21T13:44:50;4.75;;;1.55;;
5428;SDS011;2737;52.386;9.980;2022-08-21T13:47:19;3.72;;;1.42;;
5428;SDS011;2737;52.386;9.980;2022-08-21T13:49:47;6.15;;;1.52;;
5428;SDS011;2737;52.386;9.980;2022-08-21T13:52:19;4.00;;;1.33;;
5428;SDS011;2737;52.386;9.980;2022-08-21T13:54:52;4.75;;;1.80;;
5428;SDS011;2737;52.386;9.980;2022-08-21T13:57:25;2.85;;;1.35;;
5428;SDS011;2737;52.386;9.980;2022-08-21T14:00:09;3.13;;;1.40;;
5428;SDS011;2737;52.386;9.980;2022-08-21T14:02:42;3.97;;;1.48;;
5428;SDS011;2737;52.386;9.980;2022-08-21T14:05:15;5.18;;;1.50;;
5428;SDS011;2737;52.386;9.980;2022-08-21T14:07:49;5.90;;;1.60;;
5428;SDS011;2737;52.386;9.980;2022-08-21T14:10:23;6.03;;;1.60;;
5428;SDS011;2737;52.386;9.980;2022-08-21T14:12:55;2.28;;;1.30;;
5428;SDS011;2737;52.386;9.980;2022-08-21T14:15:25;4.57;;;1.52;;
5428;SDS011;2737;52.386;9.980;2022-08-21T14:17:54;3.35;;;1.27;;
5428;SDS011;2737;52.386;9.980;2022-08-21T14:20:33;5.93;;;1.77;;
5428;SDS011;2737;52.386;9.980;2022-08-21T14:23:02;2.70;;;1.48;;
5428;SDS011;2737;52.386;9.980;2022-08-21T14:25:31;4.93;;;1.30;;
5428;SDS011;2737;52.386;9.980;2022-08-21T14:28:10;2.28;;;1.17;;
5428;SDS011;2737;52.386;9.980;2022-08-21T14:30:45;4.57;;;1.50;;
5428;SDS011;2737;52.386;9.980;2022-08-21T14:33:13;3.53;;;1.40;;
5428;SDS011;2737;52.386;9.980;2022-08-21T14:35:45;5.25;;;1.60;;
5428;SDS011;2737;52.386;9.980;2022-08-21T14:38:12;3.25;;;1.48;;
5428;SDS011;2737;52.386;9.980;2022-08-21T14:40:40;5.30;;;1.42;;
5428;SDS011;2737;52.386;9.980;2022-08-21T14:43:10;5.65;;;1.65;;
5428;SDS011;2737;52.386;9.980;2022-08-21T14:45:37;3.17;;;1.50;;
5428;SDS011;2737;52.386;9.980;2022-08-21T14:48:06;2.22;;;1.40;;
5428;SDS011;2737;52.386;9.980;2022-08-21T14:50:34;2.58;;;1.10;;
5428;SDS011;2737;52.386;9.980;2022-08-21T14:53:01;3.22;;;1.40;;
5428;SDS011;2737;52.386;9.980;2022-08-21T14:55:29;4.15;;;1.55;;
5428;SDS011;2737;52.386;9.980;2022-08-21T14:58:19;2.88;;;1.60;;
5428;SDS011;2737;52.386;9.980;2022-08-21T15:00:48;4.72;;;1.60;;
5428;SDS011;2737;52.386;9.980;2022-08-21T15:03:16;3.10;;;1.35;;
5428;SDS011;2737;52.386;9.980;2022-08-21T15:05:43;3.33;;;1.65;;
5428;SDS011;2737;52.386;9.980;2022-08-21T15:08:10;4.72;;;1.50;;
5428;SDS011;2737;52.386;9.980;2022-08-21T15:10:37;5.13;;;1.92;;
5428;SDS011;2737;52.386;9.980;2022-08-21T15:13:05;6.03;;;1.30;;
5428;SDS011;2737;52.386;9.980;2022-08-21T15:15:34;4.10;;;1.52;;
5428;SDS011;2737;52.386;9.980;2022-08-21T15:18:06;8.80;;;1.48;;
5428;SDS011;2737;52.386;9.980;2022-08-21T15:20:33;5.63;;;1.88;;
5428;SDS011;2737;52.386;9.980;2022-08-21T15:23:01;3.78;;;1.58;;
5428;SDS011;2737;52.386;9.980;2022-08-21T15:25:28;6.68;;;1.42;;
5428;SDS011;2737;52.386;9.980;2022-08-21T15:27:56;4.72;;;1.50;;
5428;SDS011;2737;52.386;9.980;2022-08-21T15:30:23;2.58;;;1.60;;
5428;SDS011;2737;52.386;9.980;2022-08-21T15:32:52;2.75;;;1.33;;
5428;SDS011;2737;52.386;9.980;2022-08-21T15:35:20;3.63;;;1.30;;
5428;SDS011;2737;52.386;9.980;2022-08-21T15:37:51;5.03;;;1.40;;